sensor_id;sensor_type;location;lat;lon;timestamp;pressure;altitude;pressure_sealevel;temperature;humidity
16100;BME280;8154;50.830;12.082;2024-01-30T00:02:26;100816.03;;;22.41;30.06
16100;BME280;8154;50.830;12.082;2024-01-30T00:05:05;100818.16;;;22.37;30.10
16100;BME280;8154;50.830;12.082;2024-01-30T00:07:33;100817.44;;;22.27;30.32
16100;BME280;8154;50.830;12.082;2024-01-30T00:09:59;100816.38;;;22.20;30.41
16100;BME280;8154;50.830;12.082;2024-01-30T00:12:39;100818.50;;;22.17;30.37
16100;BME280;8154;50.830;12.082;2024-01-30T00:15:07;100813.88;;;22.19;30.36
16100;BME280;8154;50.830;12.082;2024-01-30T00:17:38;100818.34;;;22.18;30.47
16100;BME280;8154;50.830;12.082;2024-01-30T00:20:24;100815.75;;;22.26;30.30
16100;BME280;8154;50.830;12.082;2024-01-30T00:22:54;100811.81;;;22.30;30.35
16100;BME280;8154;50.830;12.082;2024-01-30T00:25:20;100821.47;;;22.31;30.14
16100;BME280;8154;50.830;12.082;2024-01-30T00:27:50;100812.84;;;22.37;30.23
16100;BME280;8154;50.830;12.082;2024-01-30T00:30:16;100811.50;;;22.33;30.38
16100;BME280;8154;50.830;12.082;2024-01-30T00:32:47;100787.22;;;22.19;30.02
16100;BME280;8154;50.830;12.082;2024-01-30T00:35:13;100818.63;;;22.33;30.01
16100;BME280;8154;50.830;12.082;2024-01-30T00:37:39;100809.38;;;22.19;30.26
16100;BME280;8154;50.830;12.082;2024-01-30T00:40:07;100811.72;;;22.22;30.31
16100;BME280;8154;50.830;12.082;2024-01-30T00:42:44;100816.22;;;22.22;30.30
16100;BME280;8154;50.830;12.082;2024-01-30T00:45:20;100811.19;;;22.19;30.48
16100;BME280;8154;50.830;12.082;2024-01-30T00:48:06;100813.41;;;22.23;30.31
16100;BME280;8154;50.830;12.082;2024-01-30T00:50:32;100809.78;;;22.32;30.15
16100;BME280;8154;50.830;12.082;2024-01-30T00:53:12;100810.81;;;22.31;30.29
16100;BME280;8154;50.830;12.082;2024-01-30T00:55:50;100809.78;;;22.32;30.15
16100;BME280;8154;50.830;12.082;2024-01-30T00:58:16;100808.81;;;22.33;30.20
16100;BME280;8154;50.830;12.082;2024-01-30T01:00:47;100808.13;;;22.31;30.13
16100;BME280;8154;50.830;12.082;2024-01-30T01:03:15;100802.13;;;22.29;30.08
16100;BME280;8154;50.830;12.082;2024-01-30T01:05:49;100804.75;;;22.21;30.40
16100;BME280;8154;50.830;12.082;2024-01-30T01:08:34;100797.72;;;22.20;30.25
16100;BME280;8154;50.830;12.082;2024-01-30T01:11:01;100802.38;;;22.18;30.42
16100;BME280;8154;50.830;12.082;2024-01-30T01:13:48;100799.84;;;22.17;30.22
16100;BME280;8154;50.830;12.082;2024-01-30T01:16:19;100805.03;;;22.18;30.42
16100;BME280;8154;50.830;12.082;2024-01-30T01:18:45;100796.78;;;22.29;30.18
16100;BME280;8154;50.830;12.082;2024-01-30T01:21:16;100797.84;;;22.36;30.02
16100;BME280;8154;50.830;12.082;2024-01-30T01:23:42;100802.19;;;22.37;29.92
16100;BME280;8154;50.830;12.082;2024-01-30T01:26:28;100800.22;;;22.39;30.05
16100;BME280;8154;50.830;12.082;2024-01-30T01:28:56;100800.38;;;22.38;30.10
16100;BME280;8154;50.830;12.082;2024-01-30T01:31:22;100793.47;;;22.27;30.10
16100;BME280;8154;50.830;12.082;2024-01-30T01:33:53;100791.44;;;22.21;30.26
16100;BME280;8154;50.830;12.082;2024-01-30T01:36:20;100787.78;;;22.22;30.30
16100;BME280;8154;50.830;12.082;2024-01-30T01:39:05;100784.41;;;22.20;30.33
16100;BME280;8154;50.830;12.082;2024-01-30T01:41:45;100784.41;;;22.20;30.35
16100;BME280;8154;50.830;12.082;2024-01-30T01:44:23;100789.28;;;22.25;30.19
16100;BME280;8154;50.830;12.082;2024-01-30T01:47:07;100779.00;;;22.30;30.21
16100;BME280;8154;50.830;12.082;2024-01-30T01:49:49;100777.03;;;22.32;30.08
16100;BME280;8154;50.830;12.082;2024-01-30T01:52:18;100776.22;;;22.39;30.00
16100;BME280;8154;50.830;12.082;2024-01-30T01:54:46;100779.22;;;22.36;30.10
16100;BME280;8154;50.830;12.082;2024-01-30T01:57:15;100786.19;;;22.37;29.94
16100;BME280;8154;50.830;12.082;2024-01-30T01:59:42;100775.28;;;22.23;30.07
16100;BME280;8154;50.830;12.082;2024-01-30T02:02:14;100779.78;;;22.22;30.21
16100;BME280;8154;50.830;12.082;2024-01-30T02:04:48;100778.13;;;22.21;30.15
16100;BME280;8154;50.830;12.082;2024-01-30T02:07:14;100778.13;;;22.21;30.24
16100;BME280;8154;50.830;12.082;2024-01-30T02:09:46;100780.94;;;22.20;30.22
16100;BME280;8154;50.830;12.082;2024-01-30T02:12:15;100779.94;;;22.21;30.16
16100;BME280;8154;50.830;12.082;2024-01-30T02:14:46;100781.44;;;22.23;30.29
16100;BME280;8154;50.830;12.082;2024-01-30T02:17:15;100780.50;;;22.32;29.99
16100;BME280;8154;50.830;12.082;2024-01-30T02:19:51;100776.00;;;22.33;30.03
16100;BME280;8154;50.830;12.082;2024-01-30T02:22:37;100783.00;;;22.34;29.88
16100;BME280;8154;50.830;12.082;2024-01-30T02:25:05;100779.06;;;22.38;29.99
16100;BME280;8154;50.830;12.082;2024-01-30T02:27:31;100794.28;;;22.28;30.12
16100;BME280;8154;50.830;12.082;2024-01-30T02:30:01;100783.28;;;22.23;30.25
16100;BME280;8154;50.830;12.082;2024-01-30T02:32:28;100790.44;;;22.22;30.13
16100;BME280;8154;50.830;12.082;2024-01-30T02:35:13;100777.06;;;22.14;30.19
16100;BME280;8154;50.830;12.082;2024-01-30T02:37:55;100787.78;;;22.22;30.39
16100;BME280;8154;50.830;12.082;2024-01-30T02:40:25;100786.75;;;22.23;30.29
16100;BME280;8154;50.830;12.082;2024-01-30T02:43:08;100782.50;;;22.30;30.18
16100;BME280;8154;50.830;12.082;2024-01-30T02:45:46;100788.88;;;22.37;29.99
16100;BME280;8154;50.830;12.082;2024-01-30T02:48:13;100773.66;;;22.30;30.06
16100;BME280;8154;50.830;12.082;2024-01-30T02:50:40;100780.03;;;22.37;30.17
16100;BME280;8154;50.830;12.082;2024-01-30T02:53:20;100779.53;;;22.33;30.01
16100;BME280;8154;50.830;12.082;2024-01-30T02:56:06;100776.81;;;22.25;30.21
16100;BME280;8154;50.830;12.082;2024-01-30T02:58:55;100781.44;;;22.23;30.29
16100;BME280;8154;50.830;12.082;2024-01-30T03:01:23;100771.78;;;22.22;30.41
16100;BME280;8154;50.830;12.082;2024-01-30T03:04:06;100775.94;;;22.25;30.36
16100;BME280;8154;50.830;12.082;2024-01-30T03:06:32;100774.44;;;22.22;30.42
16100;BME280;8154;50.830;12.082;2024-01-30T03:09:10;100779.31;;;22.27;30.23
16100;BME280;8154;50.830;12.082;2024-01-30T03:11:53;100778.00;;;22.31;30.28
16100;BME280;8154;50.830;12.082;2024-01-30T03:14:20;100776.00;;;22.33;30.11
16100;BME280;8154;50.830;12.082;2024-01-30T03:17:06;100775.91;;;22.42;30.01
16100;BME280;8154;50.830;12.082;2024-01-30T03:19:33;100770.75;;;22.41;29.95
16100;BME280;8154;50.830;12.082;2024-01-30T03:22:08;100774.19;;;22.33;30.15
16100;BME280;8154;50.830;12.082;2024-01-30T03:24:36;100770.47;;;22.26;30.30
16100;BME280;8154;50.830;12.082;2024-01-30T03:27:10;100764.00;;;22.29;30.23
16100;BME280;8154;50.830;12.082;2024-01-30T03:29:46;100760.50;;;22.28;30.04
16100;BME280;8154;50.830;12.082;2024-01-30T03:32:14;100759.81;;;22.26;30.31
16100;BME280;8154;50.830;12.082;2024-01-30T03:34:43;100729.66;;;22.18;30.18
16100;BME280;8154;50.830;12.082;2024-01-30T03:37:19;100759.00;;;22.26;30.27
16100;BME280;8154;50.830;12.082;2024-01-30T03:39:54;100758.59;;;22.38;30.02
16100;BME280;8154;50.830;12.082;2024-01-30T03:42:40;100756.91;;;22.37;29.90
16100;BME280;8154;50.830;12.082;2024-01-30T03:45:11;100734.34;;;22.24;30.00
16100;BME280;8154;50.830;12.082;2024-01-30T03:47:56;100757.59;;;22.39;29.89
16100;BME280;8154;50.830;12.082;2024-01-30T03:50:23;100763.31;;;22.27;30.23
16100;BME280;8154;50.830;12.082;2024-01-30T03:52:51;100768.81;;;22.25;30.28
16100;BME280;8154;50.830;12.082;2024-01-30T03:55:28;100755.81;;;22.22;30.29
16100;BME280;8154;50.830;12.082;2024-01-30T03:57:56;100752.31;;;22.22;30.28
16100;BME280;8154;50.830;12.082;2024-01-30T04:00:42;100748.66;;;22.23;30.36
16100;BME280;8154;50.830;12.082;2024-01-30T04:03:28;100748.97;;;22.20;30.38
16100;BME280;8154;50.830;12.082;2024-01-30T04:06:13;100746.41;;;22.36;30.06
16100;BME280;8154;50.830;12.082;2024-01-30T04:09:00;100742.44;;;22.40;30.12
16100;BME280;8154;50.830;12.082;2024-01-30T04:11:26;100744.25;;;22.39;29.89
16100;BME280;8154;50.830;12.082;2024-01-30T04:13:53;100738.63;;;22.42;29.92
16100;BME280;8154;50.830;12.082;2024-01-30T04:16:39;100728.91;;;22.33;30.04
16100;BME280;8154;50.830;12.082;2024-01-30T04:19:24;100732.53;;;22.24;30.33
16100;BME280;8154;50.830;12.082;2024-01-30T04:21:52;100727.34;;;22.23;30.21
16100;BME280;8154;50.830;12.082;2024-01-30T04:24:37;100714.81;;;22.15;30.33
16100;BME280;8154;50.830;12.082;2024-01-30T04:27:23;100711.38;;;22.23;30.36
16100;BME280;8154;50.830;12.082;2024-01-30T04:29:51;100708.72;;;22.23;30.49
16100;BME280;8154;50.830;12.082;2024-01-30T04:32:40;100713.91;;;22.32;30.17
16100;BME280;8154;50.830;12.082;2024-01-30T04:35:22;100708.94;;;22.37;30.08
16100;BME280;8154;50.830;12.082;2024-01-30T04:38:10;100719.97;;;22.42;29.90
16100;BME280;8154;50.830;12.082;2024-01-30T04:40:42;100724.28;;;22.43;29.89
16100;BME280;8154;50.830;12.082;2024-01-30T04:43:08;100725.47;;;22.41;30.00
16100;BME280;8154;50.830;12.082;2024-01-30T04:45:53;100718.84;;;22.19;30.33
16100;BME280;8154;50.830;12.082;2024-01-30T04:48:24;100731.84;;;22.22;30.28
16100;BME280;8154;50.830;12.082;2024-01-30T04:50:53;100724.84;;;22.21;30.30
16100;BME280;8154;50.830;12.082;2024-01-30T04:53:22;100717.84;;;22.20;30.36
16100;BME280;8154;50.830;12.082;2024-01-30T04:55:51;100721.50;;;22.19;30.31
16100;BME280;8154;50.830;12.082;2024-01-30T04:58:17;100732.69;;;22.23;30.32
16100;BME280;8154;50.830;12.082;2024-01-30T05:01:00;100732.22;;;22.27;30.21
16100;BME280;8154;50.830;12.082;2024-01-30T05:03:38;100733.94;;;22.36;30.11
16100;BME280;8154;50.830;12.082;2024-01-30T05:06:06;100740.22;;;22.35;30.18
16100;BME280;8154;50.830;12.082;2024-01-30T05:08:33;100740.59;;;22.40;30.21
16100;BME280;8154;50.830;12.082;2024-01-30T05:11:05;100742.22;;;22.33;30.14
16100;BME280;8154;50.830;12.082;2024-01-30T05:13:51;100740.84;;;22.21;30.34
16100;BME280;8154;50.830;12.082;2024-01-30T05:16:20;100743.34;;;22.23;30.33
16100;BME280;8154;50.830;12.082;2024-01-30T05:19:05;100733.97;;;22.19;30.26
16100;BME280;8154;50.830;12.082;2024-01-30T05:21:51;100742.81;;;22.19;30.44
16100;BME280;8154;50.830;12.082;2024-01-30T05:24:33;100734.81;;;22.19;30.47
16100;BME280;8154;50.830;12.082;2024-01-30T05:27:05;100740.69;;;22.31;30.19
16100;BME280;8154;50.830;12.082;2024-01-30T05:29:40;100740.06;;;22.37;30.15
16100;BME280;8154;50.830;12.082;2024-01-30T05:32:07;100726.88;;;22.27;30.27
16100;BME280;8154;50.830;12.082;2024-01-30T05:34:37;100736.59;;;22.36;30.15
16100;BME280;8154;50.830;12.082;2024-01-30T05:37:04;100740.53;;;22.32;30.11
16100;BME280;8154;50.830;12.082;2024-01-30T05:39:45;100747.66;;;22.24;30.41
16100;BME280;8154;50.830;12.082;2024-01-30T05:42:27;100746.81;;;22.23;30.36
16100;BME280;8154;50.830;12.082;2024-01-30T05:44:54;100737.47;;;22.19;30.34
16100;BME280;8154;50.830;12.082;2024-01-30T05:47:36;100741.81;;;22.20;30.24
16100;BME280;8154;50.830;12.082;2024-01-30T05:50:22;100746.16;;;22.21;30.34
16100;BME280;8154;50.830;12.082;2024-01-30T05:52:56;100735.53;;;22.29;30.23
16100;BME280;8154;50.830;12.082;2024-01-30T05:55:23;100751.50;;;22.29;30.46
16100;BME280;8154;50.830;12.082;2024-01-30T05:57:49;100739.41;;;22.35;30.00
16100;BME280;8154;50.830;12.082;2024-01-30T06:00:20;100717.94;;;22.36;30.13
16100;BME280;8154;50.830;12.082;2024-01-30T06:02:47;100733.25;;;22.34;30.20
16100;BME280;8154;50.830;12.082;2024-01-30T06:05:13;100734.88;;;22.27;30.39
16100;BME280;8154;50.830;12.082;2024-01-30T06:07:55;100722.34;;;22.20;30.31
16100;BME280;8154;50.830;12.082;2024-01-30T06:10:40;100727.34;;;22.23;30.24
16100;BME280;8154;50.830;12.082;2024-01-30T06:13:09;100725.50;;;22.23;30.36
16100;BME280;8154;50.830;12.082;2024-01-30T06:15:38;100730.03;;;22.23;30.44
16100;BME280;8154;50.830;12.082;2024-01-30T06:18:06;100740.69;;;22.23;30.52
16100;BME280;8154;50.830;12.082;2024-01-30T06:20:43;100732.53;;;22.24;30.42
16100;BME280;8154;50.830;12.082;2024-01-30T06:23:14;100739.50;;;22.25;30.24
16100;BME280;8154;50.830;12.082;2024-01-30T06:25:59;100725.41;;;22.33;30.32
16100;BME280;8154;50.830;12.082;2024-01-30T06:28:43;100718.59;;;22.30;30.14
16100;BME280;8154;50.830;12.082;2024-01-30T06:31:27;100731.59;;;22.33;30.03
16100;BME280;8154;50.830;12.082;2024-01-30T06:33:53;100729.19;;;22.22;30.35
16100;BME280;8154;50.830;12.082;2024-01-30T06:36:23;100736.31;;;22.22;30.34
16100;BME280;8154;50.830;12.082;2024-01-30T06:38:49;100740.84;;;22.21;30.35
16100;BME280;8154;50.830;12.082;2024-01-30T06:41:17;100738.16;;;22.21;30.39
16100;BME280;8154;50.830;12.082;2024-01-30T06:43:44;100735.78;;;22.18;30.48
16100;BME280;8154;50.830;12.082;2024-01-30T06:46:30;100740.84;;;22.21;30.40
16100;BME280;8154;50.830;12.082;2024-01-30T06:49:16;100740.53;;;22.24;30.44
16100;BME280;8154;50.830;12.082;2024-01-30T06:52:06;100740.84;;;22.29;30.33
16100;BME280;8154;50.830;12.082;2024-01-30T06:54:52;100738.25;;;22.37;30.21
16100;BME280;8154;50.830;12.082;2024-01-30T06:57:21;100741.91;;;22.36;30.21
16100;BME280;8154;50.830;12.082;2024-01-30T07:00:07;100742.88;;;22.27;30.24
16100;BME280;8154;50.830;12.082;2024-01-30T07:02:41;100737.16;;;22.22;30.44
16100;BME280;8154;50.830;12.082;2024-01-30T07:05:08;100737.31;;;22.21;30.54
16100;BME280;8154;50.830;12.082;2024-01-30T07:07:35;100736.63;;;22.19;30.59
16100;BME280;8154;50.830;12.082;2024-01-30T07:10:02;100734.81;;;22.19;30.38
16100;BME280;8154;50.830;12.082;2024-01-30T07:12:28;100730.78;;;22.15;30.40
16100;BME280;8154;50.830;12.082;2024-01-30T07:15:00;100740.69;;;22.23;30.29
16100;BME280;8154;50.830;12.082;2024-01-30T07:17:41;100735.50;;;22.21;30.49
16100;BME280;8154;50.830;12.082;2024-01-30T07:20:16;100704.47;;;22.12;30.32
16100;BME280;8154;50.830;12.082;2024-01-30T07:22:43;100742.59;;;22.38;30.17
16100;BME280;8154;50.830;12.082;2024-01-30T07:25:13;100719.53;;;22.21;30.29
16100;BME280;8154;50.830;12.082;2024-01-30T07:27:44;100743.53;;;22.29;30.26
16100;BME280;8154;50.830;12.082;2024-01-30T07:30:10;100731.69;;;22.24;30.40
16100;BME280;8154;50.830;12.082;2024-01-30T07:32:37;100735.03;;;22.26;30.40
16100;BME280;8154;50.830;12.082;2024-01-30T07:35:06;100743.03;;;22.26;30.40
16100;BME280;8154;50.830;12.082;2024-01-30T07:37:33;100742.19;;;22.25;30.33
16100;BME280;8154;50.830;12.082;2024-01-30T07:40:02;100744.69;;;22.27;30.37
16100;BME280;8154;50.830;12.082;2024-01-30T07:42:29;100737.84;;;22.24;30.38
16100;BME280;8154;50.830;12.082;2024-01-30T07:45:00;100745.53;;;22.27;30.46
16100;BME280;8154;50.830;12.082;2024-01-30T07:47:26;100743.38;;;22.31;30.34
16100;BME280;8154;50.830;12.082;2024-01-30T07:50:00;100746.72;;;22.33;30.32
16100;BME280;8154;50.830;12.082;2024-01-30T07:52:33;100740.91;;;22.37;30.16
16100;BME280;8154;50.830;12.082;2024-01-30T07:55:01;100748.38;;;22.34;30.27
16100;BME280;8154;50.830;12.082;2024-01-30T07:57:49;100753.38;;;22.29;30.36
16100;BME280;8154;50.830;12.082;2024-01-30T08:00:21;100755.34;;;22.27;30.36
16100;BME280;8154;50.830;12.082;2024-01-30T08:02:47;100753.38;;;22.29;30.38
16100;BME280;8154;50.830;12.082;2024-01-30T08:05:19;100737.00;;;22.24;30.41
16100;BME280;8154;50.830;12.082;2024-01-30T08:07:45;100739.88;;;22.30;30.37
16100;BME280;8154;50.830;12.082;2024-01-30T08:10:13;100745.22;;;22.30;30.33
16100;BME280;8154;50.830;12.082;2024-01-30T08:12:39;100745.53;;;22.27;30.33
16100;BME280;8154;50.830;12.082;2024-01-30T08:15:05;100741.53;;;22.31;30.13
16100;BME280;8154;50.830;12.082;2024-01-30T08:17:33;100711.25;;;22.07;30.05
16100;BME280;8154;50.830;12.082;2024-01-30T08:19:59;100733.19;;;22.26;30.29
16100;BME280;8154;50.830;12.082;2024-01-30T08:22:26;100748.06;;;22.37;30.11
16100;BME280;8154;50.830;12.082;2024-01-30T08:24:53;100752.03;;;22.33;30.32
16100;BME280;8154;50.830;12.082;2024-01-30T08:27:39;100737.38;;;22.29;30.36
16100;BME280;8154;50.830;12.082;2024-01-30T08:30:06;100748.84;;;22.29;30.29
16100;BME280;8154;50.830;12.082;2024-01-30T08:32:34;100743.22;;;22.32;30.36
16100;BME280;8154;50.830;12.082;2024-01-30T08:35:18;100736.06;;;22.33;30.32
16100;BME280;8154;50.830;12.082;2024-01-30T08:37:46;100737.56;;;22.35;30.17
16100;BME280;8154;50.830;12.082;2024-01-30T08:40:15;100703.19;;;22.16;30.29
16100;BME280;8154;50.830;12.082;2024-01-30T08:42:43;100730.91;;;22.31;30.28
16100;BME280;8154;50.830;12.082;2024-01-30T08:45:10;100736.59;;;22.36;30.28
16100;BME280;8154;50.830;12.082;2024-01-30T08:47:40;100742.88;;;22.35;30.28
16100;BME280;8154;50.830;12.082;2024-01-30T08:50:08;100730.09;;;22.39;30.22
16100;BME280;8154;50.830;12.082;2024-01-30T08:52:46;100731.94;;;22.38;30.10
16100;BME280;8154;50.830;12.082;2024-01-30T08:55:13;100736.91;;;22.33;30.42
16100;BME280;8154;50.830;12.082;2024-01-30T08:57:40;100737.88;;;22.32;30.36
16100;BME280;8154;50.830;12.082;2024-01-30T09:00:09;100731.31;;;22.44;30.24
16100;BME280;8154;50.830;12.082;2024-01-30T09:02:36;100731.38;;;22.52;30.00
16100;BME280;8154;50.830;12.082;2024-01-30T09:05:05;100724.28;;;22.43;30.07
16100;BME280;8154;50.830;12.082;2024-01-30T09:07:33;100738.63;;;22.42;30.21
16100;BME280;8154;50.830;12.082;2024-01-30T09:10:06;100732.59;;;22.40;30.22
16100;BME280;8154;50.830;12.082;2024-01-30T09:12:37;100736.44;;;22.38;30.29
16100;BME280;8154;50.830;12.082;2024-01-30T09:15:04;100715.06;;;22.30;30.32
16100;BME280;8154;50.830;12.082;2024-01-30T09:17:34;100728.81;;;22.43;30.29
16100;BME280;8154;50.830;12.082;2024-01-30T09:20:02;100735.28;;;22.40;30.21
16100;BME280;8154;50.830;12.082;2024-01-30T09:22:45;100721.13;;;22.40;30.23
16100;BME280;8154;50.830;12.082;2024-01-30T09:25:16;100737.78;;;22.42;30.22
16100;BME280;8154;50.830;12.082;2024-01-30T09:27:46;100721.41;;;22.37;30.36
16100;BME280;8154;50.830;12.082;2024-01-30T09:30:13;100738.94;;;22.39;30.36
16100;BME280;8154;50.830;12.082;2024-01-30T09:32:47;100728.28;;;22.39;30.32
16100;BME280;8154;50.830;12.082;2024-01-30T09:35:28;100727.13;;;22.42;30.11
16100;BME280;8154;50.830;12.082;2024-01-30T09:37:59;100722.63;;;22.42;30.19
16100;BME280;8154;50.830;12.082;2024-01-30T09:40:26;100727.81;;;22.44;30.07
16100;BME280;8154;50.830;12.082;2024-01-30T09:42:56;100725.16;;;22.44;30.19
16100;BME280;8154;50.830;12.082;2024-01-30T09:45:26;100728.66;;;22.44;30.22
16100;BME280;8154;50.830;12.082;2024-01-30T09:48:05;100725.47;;;22.41;30.20
16100;BME280;8154;50.830;12.082;2024-01-30T09:50:31;100726.97;;;22.43;30.31
16100;BME280;8154;50.830;12.082;2024-01-30T09:53:08;100727.97;;;22.42;30.19
16100;BME280;8154;50.830;12.082;2024-01-30T09:55:37;100723.00;;;22.47;29.96
16100;BME280;8154;50.830;12.082;2024-01-30T09:58:07;100731.66;;;22.49;30.06
16100;BME280;8154;50.830;12.082;2024-01-30T10:00:34;100726.00;;;22.44;30.10
16100;BME280;8154;50.830;12.082;2024-01-30T10:03:03;100728.66;;;22.44;30.08
16100;BME280;8154;50.830;12.082;2024-01-30T10:05:33;100721.47;;;22.45;30.16
16100;BME280;8154;50.830;12.082;2024-01-30T10:08:08;100719.50;;;22.47;30.09
16100;BME280;8154;50.830;12.082;2024-01-30T10:10:34;100716.84;;;22.47;30.04
16100;BME280;8154;50.830;12.082;2024-01-30T10:13:01;100718.34;;;22.49;29.93
16100;BME280;8154;50.830;12.082;2024-01-30T10:15:28;100723.75;;;22.57;29.96
16100;BME280;8154;50.830;12.082;2024-01-30T10:17:55;100709.28;;;22.60;29.84
16100;BME280;8154;50.830;12.082;2024-01-30T10:20:21;100709.25;;;22.52;30.14
16100;BME280;8154;50.830;12.082;2024-01-30T10:22:50;100709.84;;;22.46;30.05
16100;BME280;8154;50.830;12.082;2024-01-30T10:25:26;100709.00;;;22.45;30.13
16100;BME280;8154;50.830;12.082;2024-01-30T10:27:53;100704.34;;;22.47;29.98
16100;BME280;8154;50.830;12.082;2024-01-30T10:30:27;100688.38;;;22.47;30.05
16100;BME280;8154;50.830;12.082;2024-01-30T10:32:54;100695.91;;;22.52;30.03
16100;BME280;8154;50.830;12.082;2024-01-30T10:35:22;100696.84;;;22.43;30.09
16100;BME280;8154;50.830;12.082;2024-01-30T10:37:48;100688.00;;;22.42;30.04
16100;BME280;8154;50.830;12.082;2024-01-30T10:40:21;100690.50;;;22.44;30.12
16100;BME280;8154;50.830;12.082;2024-01-30T10:43:01;100693.00;;;22.45;30.11
16100;BME280;8154;50.830;12.082;2024-01-30T10:45:49;100679.69;;;22.45;29.99
16100;BME280;8154;50.830;12.082;2024-01-30T10:48:30;100691.34;;;22.44;30.20
16100;BME280;8154;50.830;12.082;2024-01-30T10:50:59;100686.03;;;22.44;30.07
16100;BME280;8154;50.830;12.082;2024-01-30T10:53:28;100677.88;;;22.46;30.09
16100;BME280;8154;50.830;12.082;2024-01-30T10:55:56;100674.53;;;22.44;30.01
16100;BME280;8154;50.830;12.082;2024-01-30T10:58:42;100662.00;;;22.36;30.15
16100;BME280;8154;50.830;12.082;2024-01-30T11:01:13;100674.88;;;22.49;29.93
16100;BME280;8154;50.830;12.082;2024-01-30T11:03:42;100679.94;;;22.52;29.88
16100;BME280;8154;50.830;12.082;2024-01-30T11:06:14;100664.75;;;22.52;29.83
16100;BME280;8154;50.830;12.082;2024-01-30T11:08:46;100681.66;;;22.43;30.11
16100;BME280;8154;50.830;12.082;2024-01-30T11:11:12;100678.19;;;22.43;30.19
16100;BME280;8154;50.830;12.082;2024-01-30T11:13:41;100667.53;;;22.43;30.19
16100;BME280;8154;50.830;12.082;2024-01-30T11:16:11;100665.84;;;22.42;30.13
16100;BME280;8154;50.830;12.082;2024-01-30T11:18:39;100669.84;;;22.38;30.06
16100;BME280;8154;50.830;12.082;2024-01-30T11:21:06;100678.03;;;22.44;30.03
16100;BME280;8154;50.830;12.082;2024-01-30T11:23:35;100674.19;;;22.47;30.01
16100;BME280;8154;50.830;12.082;2024-01-30T11:26:03;100669.19;;;22.44;30.01
16100;BME280;8154;50.830;12.082;2024-01-30T11:28:34;100669.41;;;22.50;30.04
16100;BME280;8154;50.830;12.082;2024-01-30T11:31:18;100665.22;;;22.48;30.06
16100;BME280;8154;50.830;12.082;2024-01-30T11:33:56;100664.75;;;22.52;29.92
16100;BME280;8154;50.830;12.082;2024-01-30T11:36:25;100661.78;;;22.55;29.86
16100;BME280;8154;50.830;12.082;2024-01-30T11:38:54;100669.13;;;22.53;29.95
16100;BME280;8154;50.830;12.082;2024-01-30T11:41:22;100627.00;;;22.31;29.83
16100;BME280;8154;50.830;12.082;2024-01-30T11:43:58;100655.22;;;22.50;29.84
16100;BME280;8154;50.830;12.082;2024-01-30T11:46:26;100656.06;;;22.50;29.94
16100;BME280;8154;50.830;12.082;2024-01-30T11:48:52;100650.06;;;22.48;29.98
16100;BME280;8154;50.830;12.082;2024-01-30T11:51:19;100649.06;;;22.49;29.99
16100;BME280;8154;50.830;12.082;2024-01-30T11:53:49;100650.06;;;22.48;30.01
16100;BME280;8154;50.830;12.082;2024-01-30T11:56:19;100644.56;;;22.50;29.92
16100;BME280;8154;50.830;12.082;2024-01-30T11:58:56;100628.75;;;22.48;30.08
16100;BME280;8154;50.830;12.082;2024-01-30T12:01:24;100625.63;;;22.53;30.00
16100;BME280;8154;50.830;12.082;2024-01-30T12:03:52;100630.47;;;22.57;29.92
16100;BME280;8154;50.830;12.082;2024-01-30T12:06:35;100621.50;;;22.58;29.97
16100;BME280;8154;50.830;12.082;2024-01-30T12:09:03;100625.00;;;22.59;29.91
16100;BME280;8154;50.830;12.082;2024-01-30T12:11:30;100622.66;;;22.56;29.92
16100;BME280;8154;50.830;12.082;2024-01-30T12:14:06;100611.31;;;22.54;29.97
16100;BME280;8154;50.830;12.082;2024-01-30T12:16:35;100615.97;;;22.52;29.86
16100;BME280;8154;50.830;12.082;2024-01-30T12:19:02;100621.16;;;22.53;29.92
16100;BME280;8154;50.830;12.082;2024-01-30T12:21:38;100607.94;;;22.44;30.00
16100;BME280;8154;50.830;12.082;2024-01-30T12:24:06;100614.44;;;22.49;30.01
16100;BME280;8154;50.830;12.082;2024-01-30T12:26:35;100616.28;;;22.49;29.90
16100;BME280;8154;50.830;12.082;2024-01-30T12:29:03;100618.66;;;22.52;30.04
16100;BME280;8154;50.830;12.082;2024-01-30T12:31:32;100612.78;;;22.48;29.99
16100;BME280;8154;50.830;12.082;2024-01-30T12:34:07;100610.78;;;22.50;30.09
16100;BME280;8154;50.830;12.082;2024-01-30T12:36:48;100611.16;;;22.55;30.02
16100;BME280;8154;50.830;12.082;2024-01-30T12:39:17;100591.09;;;22.43;30.00
16100;BME280;8154;50.830;12.082;2024-01-30T12:41:45;100609.81;;;22.51;29.90
16100;BME280;8154;50.830;12.082;2024-01-30T12:44:14;100596.84;;;22.56;29.94
16100;BME280;8154;50.830;12.082;2024-01-30T12:46:41;100600.50;;;22.55;29.92
16100;BME280;8154;50.830;12.082;2024-01-30T12:49:12;100597.97;;;22.54;29.84
16100;BME280;8154;50.830;12.082;2024-01-30T12:51:40;100594.34;;;22.55;29.99
16100;BME280;8154;50.830;12.082;2024-01-30T12:54:08;100591.28;;;22.50;30.08
16100;BME280;8154;50.830;12.082;2024-01-30T12:56:36;100595.66;;;22.51;30.18
16100;BME280;8154;50.830;12.082;2024-01-30T12:59:04;100588.09;;;22.46;30.17
16100;BME280;8154;50.830;12.082;2024-01-30T13:01:33;100585.59;;;22.45;30.17
16100;BME280;8154;50.830;12.082;2024-01-30T13:04:02;100580.44;;;22.43;30.20
16100;BME280;8154;50.830;12.082;2024-01-30T13:06:31;100573.97;;;22.46;30.05
16100;BME280;8154;50.830;12.082;2024-01-30T13:09:00;100579.13;;;22.47;30.00
16100;BME280;8154;50.830;12.082;2024-01-30T13:11:28;100578.13;;;22.48;30.09
16100;BME280;8154;50.830;12.082;2024-01-30T13:13:55;100574.31;;;22.43;30.00
16100;BME280;8154;50.830;12.082;2024-01-30T13:16:33;100582.31;;;22.51;30.11
16100;BME280;8154;50.830;12.082;2024-01-30T13:19:02;100580.00;;;22.56;29.87